sensor_id;sensor_type;location;lat;lon;timestamp;P1;P2;P0
72023;PMS5003;59889;50.700;5.440;2023-03-12T00:01:54;53;51;
72023;PMS5003;59889;50.700;5.440;2023-03-12T00:04:20;46;44;
72023;PMS5003;59889;50.700;5.440;2023-03-12T00:06:45;47;45;
72023;PMS5003;59889;50.700;5.440;2023-03-12T00:09:11;44;43;
72023;PMS5003;59889;50.700;5.440;2023-03-12T00:11:36;45;44;
72023;PMS5003;59889;50.700;5.440;2023-03-12T00:14:02;43;41;
72023;PMS5003;59889;50.700;5.440;2023-03-12T00:16:27;45;42;
72023;PMS5003;59889;50.700;5.440;2023-03-12T00:18:53;44;41;
72023;PMS5003;59889;50.700;5.440;2023-03-12T00:21:18;49;47;
72023;PMS5003;59889;50.700;5.440;2023-03-12T00:23:43;46;45;
72023;PMS5003;59889;50.700;5.440;2023-03-12T00:26:09;45;40;
72023;PMS5003;59889;50.700;5.440;2023-03-12T00:28:34;49;45;
72023;PMS5003;59889;50.700;5.440;2023-03-12T00:30:59;49;47;
72023;PMS5003;59889;50.700;5.440;2023-03-12T00:33:25;41;39;
72023;PMS5003;59889;50.700;5.440;2023-03-12T00:35:50;50;47;
72023;PMS5003;59889;50.700;5.440;2023-03-12T00:38:16;42;39;
72023;PMS5003;59889;50.700;5.440;2023-03-12T00:40:41;46;41;
72023;PMS5003;59889;50.700;5.440;2023-03-12T00:43:06;42;41;
72023;PMS5003;59889;50.700;5.440;2023-03-12T00:45:32;45;41;
72023;PMS5003;59889;50.700;5.440;2023-03-12T00:47:57;47;42;
72023;PMS5003;59889;50.700;5.440;2023-03-12T00:50:23;45;41;
72023;PMS5003;59889;50.700;5.440;2023-03-12T00:52:48;44;41;
72023;PMS5003;59889;50.700;5.440;2023-03-12T00:55:13;38;37;
72023;PMS5003;59889;50.700;5.440;2023-03-12T00:57:39;38;38;
72023;PMS5003;59889;50.700;5.440;2023-03-12T01:00:05;43;41;
72023;PMS5003;59889;50.700;5.440;2023-03-12T01:02:29;43;42;
72023;PMS5003;59889;50.700;5.440;2023-03-12T01:04:55;37;36;
72023;PMS5003;59889;50.700;5.440;2023-03-12T01:07:20;45;42;
72023;PMS5003;59889;50.700;5.440;2023-03-12T01:09:46;37;35;
72023;PMS5003;59889;50.700;5.440;2023-03-12T01:12:11;39;39;
72023;PMS5003;59889;50.700;5.440;2023-03-12T01:14:37;43;38;
72023;PMS5003;59889;50.700;5.440;2023-03-12T01:17:02;39;36;
72023;PMS5003;59889;50.700;5.440;2023-03-12T01:19:28;40;39;
72023;PMS5003;59889;50.700;5.440;2023-03-12T01:21:54;39;37;
72023;PMS5003;59889;50.700;5.440;2023-03-12T01:24:19;40;39;
72023;PMS5003;59889;50.700;5.440;2023-03-12T01:26:44;38;38;
72023;PMS5003;59889;50.700;5.440;2023-03-12T01:29:10;42;41;
72023;PMS5003;59889;50.700;5.440;2023-03-12T01:31:36;39;37;
72023;PMS5003;59889;50.700;5.440;2023-03-12T01:34:01;39;35;
72023;PMS5003;59889;50.700;5.440;2023-03-12T01:36:27;41;39;
72023;PMS5003;59889;50.700;5.440;2023-03-12T01:38:52;41;40;
72023;PMS5003;59889;50.700;5.440;2023-03-12T01:41:18;40;37;
72023;PMS5003;59889;50.700;5.440;2023-03-12T01:43:43;40;38;
72023;PMS5003;59889;50.700;5.440;2023-03-12T01:46:19;38;37;
72023;PMS5003;59889;50.700;5.440;2023-03-12T01:48:35;39;37;
72023;PMS5003;59889;50.700;5.440;2023-03-12T01:50:59;40;38;
72023;PMS5003;59889;50.700;5.440;2023-03-12T01:53:24;38;36;
72023;PMS5003;59889;50.700;5.440;2023-03-12T01:55:49;36;36;
72023;PMS5003;59889;50.700;5.440;2023-03-12T01:58:15;34;33;
72023;PMS5003;59889;50.700;5.440;2023-03-12T02:00:40;37;36;
72023;PMS5003;59889;50.700;5.440;2023-03-12T02:03:06;40;37;
72023;PMS5003;59889;50.700;5.440;2023-03-12T02:05:33;41;39;
72023;PMS5003;59889;50.700;5.440;2023-03-12T02:07:58;37;33;
72023;PMS5003;59889;50.700;5.440;2023-03-12T02:10:23;38;36;
72023;PMS5003;59889;50.700;5.440;2023-03-12T02:12:48;40;37;
72023;PMS5003;59889;50.700;5.440;2023-03-12T02:15:14;35;33;
72023;PMS5003;59889;50.700;5.440;2023-03-12T02:17:39;32;32;
72023;PMS5003;59889;50.700;5.440;2023-03-12T02:20:07;38;36;
72023;PMS5003;59889;50.700;5.440;2023-03-12T02:22:30;36;33;
72023;PMS5003;59889;50.700;5.440;2023-03-12T02:24:56;37;36;
72023;PMS5003;59889;50.700;5.440;2023-03-12T02:27:21;35;33;
72023;PMS5003;59889;50.700;5.440;2023-03-12T02:29:46;37;35;
72023;PMS5003;59889;50.700;5.440;2023-03-12T02:32:14;33;32;
72023;PMS5003;59889;50.700;5.440;2023-03-12T02:34:37;35;34;
72023;PMS5003;59889;50.700;5.440;2023-03-12T02:37:02;33;30;
72023;PMS5003;59889;50.700;5.440;2023-03-12T02:39:28;41;37;
72023;PMS5003;59889;50.700;5.440;2023-03-12T02:41:54;37;34;
72023;PMS5003;59889;50.700;5.440;2023-03-12T02:44:20;36;34;
72023;PMS5003;59889;50.700;5.440;2023-03-12T02:46:45;35;33;
72023;PMS5003;59889;50.700;5.440;2023-03-12T02:49:10;32;30;
72023;PMS5003;59889;50.700;5.440;2023-03-12T02:51:35;35;32;
72023;PMS5003;59889;50.700;5.440;2023-03-12T02:54:00;32;31;
72023;PMS5003;59889;50.700;5.440;2023-03-12T02:56:26;34;32;
72023;PMS5003;59889;50.700;5.440;2023-03-12T02:58:51;33;32;
72023;PMS5003;59889;50.700;5.440;2023-03-12T03:01:16;36;35;
72023;PMS5003;59889;50.700;5.440;2023-03-12T03:03:41;41;35;
72023;PMS5003;59889;50.700;5.440;2023-03-12T03:06:07;33;31;
72023;PMS5003;59889;50.700;5.440;2023-03-12T03:08:32;30;27;
72023;PMS5003;59889;50.700;5.440;2023-03-12T03:10:57;31;28;
72023;PMS5003;59889;50.700;5.440;2023-03-12T03:13:23;30;29;
72023;PMS5003;59889;50.700;5.440;2023-03-12T03:15:48;33;31;
72023;PMS5003;59889;50.700;5.440;2023-03-12T03:18:14;32;30;
72023;PMS5003;59889;50.700;5.440;2023-03-12T03:20:40;33;32;
72023;PMS5003;59889;50.700;5.440;2023-03-12T03:23:05;32;30;
72023;PMS5003;59889;50.700;5.440;2023-03-12T03:25:31;30;29;
72023;PMS5003;59889;50.700;5.440;2023-03-12T03:27:56;29;29;
72023;PMS5003;59889;50.700;5.440;2023-03-12T03:30:22;29;27;
72023;PMS5003;59889;50.700;5.440;2023-03-12T03:32:48;32;32;
72023;PMS5003;59889;50.700;5.440;2023-03-12T03:35:13;31;29;
72023;PMS5003;59889;50.700;5.440;2023-03-12T03:37:38;31;30;
72023;PMS5003;59889;50.700;5.440;2023-03-12T03:40:05;32;32;
72023;PMS5003;59889;50.700;5.440;2023-03-12T03:42:30;28;27;
72023;PMS5003;59889;50.700;5.440;2023-03-12T03:44:56;32;30;
72023;PMS5003;59889;50.700;5.440;2023-03-12T03:47:21;28;28;
72023;PMS5003;59889;50.700;5.440;2023-03-12T03:49:46;35;29;
72023;PMS5003;59889;50.700;5.440;2023-03-12T03:52:12;30;30;
72023;PMS5003;59889;50.700;5.440;2023-03-12T03:54:37;28;27;
72023;PMS5003;59889;50.700;5.440;2023-03-12T03:57:02;27;26;
72023;PMS5003;59889;50.700;5.440;2023-03-12T03:59:28;30;30;
72023;PMS5003;59889;50.700;5.440;2023-03-12T04:01:53;29;29;
72023;PMS5003;59889;50.700;5.440;2023-03-12T04:04:18;27;26;
72023;PMS5003;59889;50.700;5.440;2023-03-12T04:06:44;31;27;
72023;PMS5003;59889;50.700;5.440;2023-03-12T04:09:09;27;27;
72023;PMS5003;59889;50.700;5.440;2023-03-12T04:11:35;28;26;
72023;PMS5003;59889;50.700;5.440;2023-03-12T04:14:01;29;27;
72023;PMS5003;59889;50.700;5.440;2023-03-12T04:16:26;29;28;
72023;PMS5003;59889;50.700;5.440;2023-03-12T04:18:52;26;25;
72023;PMS5003;59889;50.700;5.440;2023-03-12T04:21:18;28;25;
72023;PMS5003;59889;50.700;5.440;2023-03-12T04:23:43;25;24;
72023;PMS5003;59889;50.700;5.440;2023-03-12T04:26:08;31;31;
72023;PMS5003;59889;50.700;5.440;2023-03-12T04:28:34;29;27;
72023;PMS5003;59889;50.700;5.440;2023-03-12T04:31:00;25;25;
72023;PMS5003;59889;50.700;5.440;2023-03-12T04:33:25;26;24;
72023;PMS5003;59889;50.700;5.440;2023-03-12T04:35:50;30;28;
72023;PMS5003;59889;50.700;5.440;2023-03-12T04:38:16;28;25;
72023;PMS5003;59889;50.700;5.440;2023-03-12T04:40:41;32;30;
72023;PMS5003;59889;50.700;5.440;2023-03-12T04:43:07;23;22;
72023;PMS5003;59889;50.700;5.440;2023-03-12T04:45:32;27;26;
72023;PMS5003;59889;50.700;5.440;2023-03-12T04:47:58;30;25;
72023;PMS5003;59889;50.700;5.440;2023-03-12T04:50:24;21;21;
72023;PMS5003;59889;50.700;5.440;2023-03-12T04:52:49;27;26;
72023;PMS5003;59889;50.700;5.440;2023-03-12T04:55:14;30;27;
72023;PMS5003;59889;50.700;5.440;2023-03-12T04:57:39;26;26;
72023;PMS5003;59889;50.700;5.440;2023-03-12T05:00:05;26;24;
72023;PMS5003;59889;50.700;5.440;2023-03-12T05:02:30;23;21;
72023;PMS5003;59889;50.700;5.440;2023-03-12T05:04:56;24;23;
72023;PMS5003;59889;50.700;5.440;2023-03-12T05:07:22;32;29;
72023;PMS5003;59889;50.700;5.440;2023-03-12T05:09:47;24;23;
72023;PMS5003;59889;50.700;5.440;2023-03-12T05:12:13;27;24;
72023;PMS5003;59889;50.700;5.440;2023-03-12T05:14:38;25;24;
72023;PMS5003;59889;50.700;5.440;2023-03-12T05:17:04;27;25;
72023;PMS5003;59889;50.700;5.440;2023-03-12T05:19:29;22;21;
72023;PMS5003;59889;50.700;5.440;2023-03-12T05:21:54;26;25;
72023;PMS5003;59889;50.700;5.440;2023-03-12T05:24:20;27;26;
72023;PMS5003;59889;50.700;5.440;2023-03-12T05:26:46;21;20;
72023;PMS5003;59889;50.700;5.440;2023-03-12T05:29:11;23;22;
72023;PMS5003;59889;50.700;5.440;2023-03-12T05:31:36;25;23;
72023;PMS5003;59889;50.700;5.440;2023-03-12T05:34:02;21;20;
72023;PMS5003;59889;50.700;5.440;2023-03-12T05:36:27;27;24;
72023;PMS5003;59889;50.700;5.440;2023-03-12T05:38:52;25;22;
72023;PMS5003;59889;50.700;5.440;2023-03-12T05:41:19;27;24;
72023;PMS5003;59889;50.700;5.440;2023-03-12T05:43:43;20;19;
72023;PMS5003;59889;50.700;5.440;2023-03-12T05:46:08;19;19;
72023;PMS5003;59889;50.700;5.440;2023-03-12T05:48:34;27;24;
72023;PMS5003;59889;50.700;5.440;2023-03-12T05:50:59;21;20;
72023;PMS5003;59889;50.700;5.440;2023-03-12T05:53:24;24;22;
72023;PMS5003;59889;50.700;5.440;2023-03-12T05:55:50;27;24;
72023;PMS5003;59889;50.700;5.440;2023-03-12T05:58:15;22;22;
72023;PMS5003;59889;50.700;5.440;2023-03-12T06:00:41;24;22;
72023;PMS5003;59889;50.700;5.440;2023-03-12T06:03:06;21;20;
72023;PMS5003;59889;50.700;5.440;2023-03-12T06:05:33;23;21;
72023;PMS5003;59889;50.700;5.440;2023-03-12T06:07:57;21;20;
72023;PMS5003;59889;50.700;5.440;2023-03-12T06:10:22;23;23;
72023;PMS5003;59889;50.700;5.440;2023-03-12T06:12:48;23;22;
72023;PMS5003;59889;50.700;5.440;2023-03-12T06:15:13;21;21;
72023;PMS5003;59889;50.700;5.440;2023-03-12T06:17:38;23;22;
72023;PMS5003;59889;50.700;5.440;2023-03-12T06:20:03;20;19;
72023;PMS5003;59889;50.700;5.440;2023-03-12T06:22:29;21;19;
72023;PMS5003;59889;50.700;5.440;2023-03-12T06:24:54;20;18;
72023;PMS5003;59889;50.700;5.440;2023-03-12T06:27:19;22;20;
72023;PMS5003;59889;50.700;5.440;2023-03-12T06:29:44;21;19;
72023;PMS5003;59889;50.700;5.440;2023-03-12T06:32:10;21;20;
72023;PMS5003;59889;50.700;5.440;2023-03-12T06:34:36;24;20;
72023;PMS5003;59889;50.700;5.440;2023-03-12T06:37:01;21;20;
72023;PMS5003;59889;50.700;5.440;2023-03-12T06:39:26;20;19;
72023;PMS5003;59889;50.700;5.440;2023-03-12T06:41:51;21;21;
72023;PMS5003;59889;50.700;5.440;2023-03-12T06:44:16;18;17;
72023;PMS5003;59889;50.700;5.440;2023-03-12T06:46:42;19;19;
72023;PMS5003;59889;50.700;5.440;2023-03-12T06:49:07;20;20;
72023;PMS5003;59889;50.700;5.440;2023-03-12T06:51:32;20;18;
72023;PMS5003;59889;50.700;5.440;2023-03-12T06:53:57;17;17;
72023;PMS5003;59889;50.700;5.440;2023-03-12T06:56:22;19;17;
72023;PMS5003;59889;50.700;5.440;2023-03-12T06:58:47;19;18;
72023;PMS5003;59889;50.700;5.440;2023-03-12T07:01:13;18;17;
72023;PMS5003;59889;50.700;5.440;2023-03-12T07:03:38;16;15;
72023;PMS5003;59889;50.700;5.440;2023-03-12T07:06:04;19;17;
72023;PMS5003;59889;50.700;5.440;2023-03-12T07:08:28;17;15;
72023;PMS5003;59889;50.700;5.440;2023-03-12T07:10:54;14;14;
72023;PMS5003;59889;50.700;5.440;2023-03-12T07:13:19;15;15;
72023;PMS5003;59889;50.700;5.440;2023-03-12T07:15:44;13;13;
72023;PMS5003;59889;50.700;5.440;2023-03-12T07:18:10;14;14;
72023;PMS5003;59889;50.700;5.440;2023-03-12T07:20:35;13;13;
72023;PMS5003;59889;50.700;5.440;2023-03-12T07:22:59;12;11;
72023;PMS5003;59889;50.700;5.440;2023-03-12T07:25:24;12;12;
72023;PMS5003;59889;50.700;5.440;2023-03-12T07:27:49;11;11;
72023;PMS5003;59889;50.700;5.440;2023-03-12T07:30:15;13;10;
72023;PMS5003;59889;50.700;5.440;2023-03-12T07:32:40;12;12;
72023;PMS5003;59889;50.700;5.440;2023-03-12T07:35:06;10;10;
72023;PMS5003;59889;50.700;5.440;2023-03-12T07:37:31;14;12;
72023;PMS5003;59889;50.700;5.440;2023-03-12T07:39:56;11;11;
72023;PMS5003;59889;50.700;5.440;2023-03-12T07:42:21;9;9;
72023;PMS5003;59889;50.700;5.440;2023-03-12T07:44:46;11;11;
72023;PMS5003;59889;50.700;5.440;2023-03-12T07:47:11;10;9;
72023;PMS5003;59889;50.700;5.440;2023-03-12T07:49:36;8;8;
72023;PMS5003;59889;50.700;5.440;2023-03-12T07:52:01;12;11;
72023;PMS5003;59889;50.700;5.440;2023-03-12T07:54:27;12;11;
72023;PMS5003;59889;50.700;5.440;2023-03-12T07:56:52;11;9;
72023;PMS5003;59889;50.700;5.440;2023-03-12T07:59:18;11;11;
72023;PMS5003;59889;50.700;5.440;2023-03-12T08:01:43;12;10;
72023;PMS5003;59889;50.700;5.440;2023-03-12T08:04:08;10;10;
72023;PMS5003;59889;50.700;5.440;2023-03-12T08:06:33;11;9;
72023;PMS5003;59889;50.700;5.440;2023-03-12T08:08:58;10;9;
72023;PMS5003;59889;50.700;5.440;2023-03-12T08:11:24;9;9;
72023;PMS5003;59889;50.700;5.440;2023-03-12T08:13:49;12;11;
72023;PMS5003;59889;50.700;5.440;2023-03-12T08:16:14;11;10;
72023;PMS5003;59889;50.700;5.440;2023-03-12T08:18:39;13;11;
72023;PMS5003;59889;50.700;5.440;2023-03-12T08:21:04;12;11;
72023;PMS5003;59889;50.700;5.440;2023-03-12T08:23:29;10;9;
72023;PMS5003;59889;50.700;5.440;2023-03-12T08:25:55;13;12;
72023;PMS5003;59889;50.700;5.440;2023-03-12T08:28:20;11;9;
72023;PMS5003;59889;50.700;5.440;2023-03-12T08:30:45;10;10;
72023;PMS5003;59889;50.700;5.440;2023-03-12T08:33:10;9;8;
72023;PMS5003;59889;50.700;5.440;2023-03-12T08:35:35;11;10;
72023;PMS5003;59889;50.700;5.440;2023-03-12T08:38:00;11;10;
72023;PMS5003;59889;50.700;5.440;2023-03-12T08:40:25;14;11;
72023;PMS5003;59889;50.700;5.440;2023-03-12T08:42:50;10;10;
72023;PMS5003;59889;50.700;5.440;2023-03-12T08:45:16;12;11;
72023;PMS5003;59889;50.700;5.440;2023-03-12T08:47:41;9;8;
72023;PMS5003;59889;50.700;5.440;2023-03-12T08:50:07;11;10;
72023;PMS5003;59889;50.700;5.440;2023-03-12T08:52:32;10;10;
72023;PMS5003;59889;50.700;5.440;2023-03-12T08:54:57;11;10;
72023;PMS5003;59889;50.700;5.440;2023-03-12T08:57:22;9;9;
72023;PMS5003;59889;50.700;5.440;2023-03-12T08:59:47;9;9;
72023;PMS5003;59889;50.700;5.440;2023-03-12T09:02:12;8;8;
72023;PMS5003;59889;50.700;5.440;2023-03-12T09:04:37;10;9;
72023;PMS5003;59889;50.700;5.440;2023-03-12T09:07:02;10;9;
72023;PMS5003;59889;50.700;5.440;2023-03-12T09:09:27;9;9;
72023;PMS5003;59889;50.700;5.440;2023-03-12T09:11:53;12;10;
72023;PMS5003;59889;50.700;5.440;2023-03-12T09:14:18;8;8;
72023;PMS5003;59889;50.700;5.440;2023-03-12T09:16:43;9;8;
72023;PMS5003;59889;50.700;5.440;2023-03-12T09:19:08;9;9;
72023;PMS5003;59889;50.700;5.440;2023-03-12T09:21:34;10;9;
72023;PMS5003;59889;50.700;5.440;2023-03-12T09:23:59;7;7;
72023;PMS5003;59889;50.700;5.440;2023-03-12T09:26:24;11;10;
72023;PMS5003;59889;50.700;5.440;2023-03-12T09:28:49;8;8;
72023;PMS5003;59889;50.700;5.440;2023-03-12T09:31:15;10;9;
72023;PMS5003;59889;50.700;5.440;2023-03-12T09:33:40;9;9;
72023;PMS5003;59889;50.700;5.440;2023-03-12T09:36:05;8;8;
72023;PMS5003;59889;50.700;5.440;2023-03-12T09:38:30;9;7;
72023;PMS5003;59889;50.700;5.440;2023-03-12T09:40:55;10;9;
72023;PMS5003;59889;50.700;5.440;2023-03-12T09:43:21;9;9;
72023;PMS5003;59889;50.700;5.440;2023-03-12T09:45:46;8;8;
72023;PMS5003;59889;50.700;5.440;2023-03-12T09:48:12;10;10;
72023;PMS5003;59889;50.700;5.440;2023-03-12T09:50:36;10;9;
72023;PMS5003;59889;50.700;5.440;2023-03-12T09:53:02;8;8;
72023;PMS5003;59889;50.700;5.440;2023-03-12T09:55:27;9;8;
72023;PMS5003;59889;50.700;5.440;2023-03-12T09:57:52;10;10;
72023;PMS5003;59889;50.700;5.440;2023-03-12T10:00:19;9;9;
72023;PMS5003;59889;50.700;5.440;2023-03-12T10:02:47;11;10;
72023;PMS5003;59889;50.700;5.440;2023-03-12T10:05:09;9;8;
72023;PMS5003;59889;50.700;5.440;2023-03-12T10:07:34;10;9;
72023;PMS5003;59889;50.700;5.440;2023-03-12T10:12:25;9;9;
72023;PMS5003;59889;50.700;5.440;2023-03-12T10:14:52;10;8;
72023;PMS5003;59889;50.700;5.440;2023-03-12T10:17:18;8;8;
72023;PMS5003;59889;50.700;5.440;2023-03-12T10:19:46;12;11;
72023;PMS5003;59889;50.700;5.440;2023-03-12T10:22:06;10;9;
72023;PMS5003;59889;50.700;5.440;2023-03-12T10:24:34;10;8;
72023;PMS5003;59889;50.700;5.440;2023-03-12T10:26:56;13;10;
72023;PMS5003;59889;50.700;5.440;2023-03-12T10:29:21;12;11;
72023;PMS5003;59889;50.700;5.440;2023-03-12T10:31:48;13;10;
72023;PMS5003;59889;50.700;5.440;2023-03-12T10:34:13;14;13;
72023;PMS5003;59889;50.700;5.440;2023-03-12T10:36:37;13;12;
72023;PMS5003;59889;50.700;5.440;2023-03-12T10:39:01;11;10;
72023;PMS5003;59889;50.700;5.440;2023-03-12T10:41:27;9;9;
72023;PMS5003;59889;50.700;5.440;2023-03-12T10:43:51;11;9;
72023;PMS5003;59889;50.700;5.440;2023-03-12T10:48:42;11;10;
72023;PMS5003;59889;50.700;5.440;2023-03-12T10:51:08;10;10;
72023;PMS5003;59889;50.700;5.440;2023-03-12T10:53:33;9;8;
72023;PMS5003;59889;50.700;5.440;2023-03-12T10:55:59;11;10;
72023;PMS5003;59889;50.700;5.440;2023-03-12T10:58:23;12;11;
72023;PMS5003;59889;50.700;5.440;2023-03-12T11:00:53;12;10;
72023;PMS5003;59889;50.700;5.440;2023-03-12T11:03:18;9;9;
72023;PMS5003;59889;50.700;5.440;2023-03-12T11:08:11;9;9;
72023;PMS5003;59889;50.700;5.440;2023-03-12T11:10:40;11;11;
72023;PMS5003;59889;50.700;5.440;2023-03-12T11:12:56;11;10;
72023;PMS5003;59889;50.700;5.440;2023-03-12T11:15:20;12;10;
72023;PMS5003;59889;50.700;5.440;2023-03-12T11:17:44;9;7;
72023;PMS5003;59889;50.700;5.440;2023-03-12T11:22:34;11;9;
72023;PMS5003;59889;50.700;5.440;2023-03-12T11:25:00;10;9;
72023;PMS5003;59889;50.700;5.440;2023-03-12T11:27:29;9;8;
72023;PMS5003;59889;50.700;5.440;2023-03-12T11:29:50;11;10;
72023;PMS5003;59889;50.700;5.440;2023-03-12T11:32:15;9;9;
72023;PMS5003;59889;50.700;5.440;2023-03-12T11:34:40;7;7;
72023;PMS5003;59889;50.700;5.440;2023-03-12T11:37:07;10;9;
72023;PMS5003;59889;50.700;5.440;2023-03-12T11:39:32;9;8;
72023;PMS5003;59889;50.700;5.440;2023-03-12T11:42:05;10;10;
72023;PMS5003;59889;50.700;5.440;2023-03-12T11:44:24;9;8;
72023;PMS5003;59889;50.700;5.440;2023-03-12T11:46:50;7;6;
72023;PMS5003;59889;50.700;5.440;2023-03-12T11:49:15;8;7;
72023;PMS5003;59889;50.700;5.440;2023-03-12T11:51:39;10;10;
72023;PMS5003;59889;50.700;5.440;2023-03-12T11:54:05;9;8;
72023;PMS5003;59889;50.700;5.440;2023-03-12T11:56:27;8;7;
72023;PMS5003;59889;50.700;5.440;2023-03-12T11:58:55;8;7;
72023;PMS5003;59889;50.700;5.440;2023-03-12T12:01:19;7;6;
72023;PMS5003;59889;50.700;5.440;2023-03-12T12:06:07;8;7;
72023;PMS5003;59889;50.700;5.440;2023-03-12T12:08:39;7;6;
72023;PMS5003;59889;50.700;5.440;2023-03-12T12:10:59;9;8;
72023;PMS5003;59889;50.700;5.440;2023-03-12T12:13:24;7;6;
72023;PMS5003;59889;50.700;5.440;2023-03-12T12:15:50;8;8;
72023;PMS5003;59889;50.700;5.440;2023-03-12T12:18:22;9;9;
72023;PMS5003;59889;50.700;5.440;2023-03-12T12:20:39;10;7;
72023;PMS5003;59889;50.700;5.440;2023-03-12T12:23:09;7;7;
72023;PMS5003;59889;50.700;5.440;2023-03-12T12:25:33;5;4;
72023;PMS5003;59889;50.700;5.440;2023-03-12T12:27:58;7;7;
72023;PMS5003;59889;50.700;5.440;2023-03-12T12:30:21;8;7;
72023;PMS5003;59889;50.700;5.440;2023-03-12T12:32:51;6;5;
72023;PMS5003;59889;50.700;5.440;2023-03-12T12:35:14;8;8;
72023;PMS5003;59889;50.700;5.440;2023-03-12T12:37:39;7;6;
72023;PMS5003;59889;50.700;5.440;2023-03-12T12:40:04;7;6;
72023;PMS5003;59889;50.700;5.440;2023-03-12T12:42:26;9;7;
72023;PMS5003;59889;50.700;5.440;2023-03-12T12:44:51;9;8;
72023;PMS5003;59889;50.700;5.440;2023-03-12T12:47:17;11;10;
72023;PMS5003;59889;50.700;5.440;2023-03-12T12:49:42;9;7;
72023;PMS5003;59889;50.700;5.440;2023-03-12T12:52:07;7;6;
72023;PMS5003;59889;50.700;5.440;2023-03-12T12:54:33;5;5;
72023;PMS5003;59889;50.700;5.440;2023-03-12T12:56:57;7;6;
72023;PMS5003;59889;50.700;5.440;2023-03-12T12:59:26;9;4;
72023;PMS5003;59889;50.700;5.440;2023-03-12T13:01:47;6;6;
72023;PMS5003;59889;50.700;5.440;2023-03-12T13:04:14;7;6;
72023;PMS5003;59889;50.700;5.440;2023-03-12T13:09:13;11;7;
72023;PMS5003;59889;50.700;5.440;2023-03-12T13:11:29;6;6;
72023;PMS5003;59889;50.700;5.440;2023-03-12T13:16:26;8;7;
72023;PMS5003;59889;50.700;5.440;2023-03-12T13:21:12;6;5;
72023;PMS5003;59889;50.700;5.440;2023-03-12T13:23:35;8;7;
72023;PMS5003;59889;50.700;5.440;2023-03-12T13:26:00;8;8;
72023;PMS5003;59889;50.700;5.440;2023-03-12T13:28:27;6;5;
72023;PMS5003;59889;50.700;5.440;2023-03-12T13:30:50;6;5;
72023;PMS5003;59889;50.700;5.440;2023-03-12T13:33:16;8;6;
72023;PMS5003;59889;50.700;5.440;2023-03-12T13:35:40;6;5;
72023;PMS5003;59889;50.700;5.440;2023-03-12T13:38:17;6;5;
72023;PMS5003;59889;50.700;5.440;2023-03-12T13:40:33;5;5;
72023;PMS5003;59889;50.700;5.440;2023-03-12T13:43:00;6;4;
72023;PMS5003;59889;50.700;5.440;2023-03-12T13:45:23;8;7;
72023;PMS5003;59889;50.700;5.440;2023-03-12T13:47:46;6;6;
72023;PMS5003;59889;50.700;5.440;2023-03-12T13:50:12;7;7;
72023;PMS5003;59889;50.700;5.440;2023-03-12T13:52:39;5;5;
72023;PMS5003;59889;50.700;5.440;2023-03-12T13:55:05;10;7;
72023;PMS5003;59889;50.700;5.440;2023-03-12T13:57:29;5;4;
72023;PMS5003;59889;50.700;5.440;2023-03-12T13:59:52;6;5;
72023;PMS5003;59889;50.700;5.440;2023-03-12T14:02:19;7;6;
72023;PMS5003;59889;50.700;5.440;2023-03-12T14:04:42;6;5;
72023;PMS5003;59889;50.700;5.440;2023-03-12T14:07:16;10;8;
72023;PMS5003;59889;50.700;5.440;2023-03-12T14:09:33;7;5;
72023;PMS5003;59889;50.700;5.440;2023-03-12T14:11:59;7;6;
72023;PMS5003;59889;50.700;5.440;2023-03-12T14:14:26;5;5;
72023;PMS5003;59889;50.700;5.440;2023-03-12T14:16:49;5;4;
72023;PMS5003;59889;50.700;5.440;2023-03-12T14:19:14;5;4;
72023;PMS5003;59889;50.700;5.440;2023-03-12T14:21:39;9;9;
72023;PMS5003;59889;50.700;5.440;2023-03-12T14:24:04;5;5;
72023;PMS5003;59889;50.700;5.440;2023-03-12T14:26:30;8;5;
72023;PMS5003;59889;50.700;5.440;2023-03-12T14:28:56;3;3;
72023;PMS5003;59889;50.700;5.440;2023-03-12T14:31:20;7;6;
72023;PMS5003;59889;50.700;5.440;2023-03-12T14:33:47;6;5;
72023;PMS5003;59889;50.700;5.440;2023-03-12T14:36:11;6;6;
72023;PMS5003;59889;50.700;5.440;2023-03-12T14:38:36;8;7;
72023;PMS5003;59889;50.700;5.440;2023-03-12T14:41:02;7;6;
72023;PMS5003;59889;50.700;5.440;2023-03-12T14:43:26;6;5;
72023;PMS5003;59889;50.700;5.440;2023-03-12T14:45:55;4;4;
72023;PMS5003;59889;50.700;5.440;2023-03-12T14:48:19;5;4;
72023;PMS5003;59889;50.700;5.440;2023-03-12T14:50:42;5;5;
72023;PMS5003;59889;50.700;5.440;2023-03-12T14:53:10;10;5;
72023;PMS5003;59889;50.700;5.440;2023-03-12T14:55:32;6;4;
72023;PMS5003;59889;50.700;5.440;2023-03-12T14:58:03;5;4;
72023;PMS5003;59889;50.700;5.440;2023-03-12T15:00:24;4;3;
72023;PMS5003;59889;50.700;5.440;2023-03-12T15:02:48;5;4;
72023;PMS5003;59889;50.700;5.440;2023-03-12T15:05:14;6;4;
72023;PMS5003;59889;50.700;5.440;2023-03-12T15:07:38;6;3;
72023;PMS5003;59889;50.700;5.440;2023-03-12T15:10:04;8;5;
72023;PMS5003;59889;50.700;5.440;2023-03-12T15:12:30;4;4;
72023;PMS5003;59889;50.700;5.440;2023-03-12T15:14:54;5;4;
72023;PMS5003;59889;50.700;5.440;2023-03-12T15:17:19;4;3;
72023;PMS5003;59889;50.700;5.440;2023-03-12T15:19:43;8;5;
72023;PMS5003;59889;50.700;5.440;2023-03-12T15:22:10;9;8;
72023;PMS5003;59889;50.700;5.440;2023-03-12T15:24:36;6;6;
72023;PMS5003;59889;50.700;5.440;2023-03-12T15:29:26;6;5;
72023;PMS5003;59889;50.700;5.440;2023-03-12T15:31:51;5;5;
72023;PMS5003;59889;50.700;5.440;2023-03-12T15:36:44;6;6;
72023;PMS5003;59889;50.700;5.440;2023-03-12T15:39:12;6;5;
72023;PMS5003;59889;50.700;5.440;2023-03-12T15:41:35;6;5;
72023;PMS5003;59889;50.700;5.440;2023-03-12T15:43:57;4;4;
72023;PMS5003;59889;50.700;5.440;2023-03-12T15:46:23;5;4;
72023;PMS5003;59889;50.700;5.440;2023-03-12T15:48:48;6;4;
72023;PMS5003;59889;50.700;5.440;2023-03-12T15:51:13;4;4;
72023;PMS5003;59889;50.700;5.440;2023-03-12T15:53:38;6;6;
72023;PMS5003;59889;50.700;5.440;2023-03-12T15:56:04;5;4;
72023;PMS5003;59889;50.700;5.440;2023-03-12T15:58:30;4;4;
72023;PMS5003;59889;50.700;5.440;2023-03-12T16:00:54;7;4;
72023;PMS5003;59889;50.700;5.440;2023-03-12T16:03:19;6;5;
72023;PMS5003;59889;50.700;5.440;2023-03-12T16:05:45;7;5;
72023;PMS5003;59889;50.700;5.440;2023-03-12T16:08:11;7;5;
72023;PMS5003;59889;50.700;5.440;2023-03-12T16:10:35;7;6;
72023;PMS5003;59889;50.700;5.440;2023-03-12T16:13:01;6;6;
72023;PMS5003;59889;50.700;5.440;2023-03-12T16:15:28;5;4;
72023;PMS5003;59889;50.700;5.440;2023-03-12T16:17:51;4;4;
72023;PMS5003;59889;50.700;5.440;2023-03-12T16:20:16;4;4;
72023;PMS5003;59889;50.700;5.440;2023-03-12T16:22:42;4;4;
72023;PMS5003;59889;50.700;5.440;2023-03-12T16:25:07;4;4;
72023;PMS5003;59889;50.700;5.440;2023-03-12T16:27:32;5;5;
72023;PMS5003;59889;50.700;5.440;2023-03-12T16:29:57;6;5;
72023;PMS5003;59889;50.700;5.440;2023-03-12T16:32:22;4;3;
72023;PMS5003;59889;50.700;5.440;2023-03-12T16:34:48;4;4;
72023;PMS5003;59889;50.700;5.440;2023-03-12T16:37:13;5;4;
72023;PMS5003;59889;50.700;5.440;2023-03-12T16:39:38;4;3;
72023;PMS5003;59889;50.700;5.440;2023-03-12T16:42:04;6;4;